sensor_id;sensor_type;location;lat;lon;timestamp;P1;durP1;ratioP1;P2;durP2;ratioP2
25111;SDS011;13092;51.996;4.458;2023-08-17T05:19:14;46.95;;;42.65;;
25111;SDS011;13092;51.996;4.458;2023-08-17T05:21:42;46.90;;;42.85;;
25111;SDS011;13092;51.996;4.458;2023-08-17T05:24:10;46.55;;;42.53;;
25111;SDS011;13092;51.996;4.458;2023-08-17T05:26:39;47.42;;;43.05;;
25111;SDS011;13092;51.996;4.458;2023-08-17T05:29:07;47.35;;;43.15;;
25111;SDS011;13092;51.996;4.458;2023-08-17T05:31:36;46.25;;;42.05;;
25111;SDS011;13092;51.996;4.458;2023-08-17T05:34:07;45.78;;;41.63;;
25111;SDS011;13092;51.996;4.458;2023-08-17T05:36:36;46.50;;;42.53;;
25111;SDS011;13092;51.996;4.458;2023-08-17T05:41:41;45.60;;;41.72;;
25111;SDS011;13092;51.996;4.458;2023-08-17T05:44:10;44.83;;;40.92;;
25111;SDS011;13092;51.996;4.458;2023-08-17T05:46:40;45.58;;;41.67;;
25111;SDS011;13092;51.996;4.458;2023-08-17T05:49:09;45.33;;;41.15;;
25111;SDS011;13092;51.996;4.458;2023-08-17T05:51:39;45.33;;;41.35;;
25111;SDS011;13092;51.996;4.458;2023-08-17T05:54:07;45.45;;;41.63;;
25111;SDS011;13092;51.996;4.458;2023-08-17T05:56:35;45.85;;;41.90;;
25111;SDS011;13092;51.996;4.458;2023-08-17T05:59:03;46.42;;;42.47;;
25111;SDS011;13092;51.996;4.458;2023-08-17T06:01:31;46.70;;;42.53;;
25111;SDS011;13092;51.996;4.458;2023-08-17T06:03:59;46.42;;;42.47;;
25111;SDS011;13092;51.996;4.458;2023-08-17T06:06:32;46.05;;;42.03;;
25111;SDS011;13092;51.996;4.458;2023-08-17T06:09:02;45.47;;;41.67;;
25111;SDS011;13092;51.996;4.458;2023-08-17T06:11:30;46.45;;;42.35;;
25111;SDS011;13092;51.996;4.458;2023-08-17T06:13:58;46.67;;;42.55;;
25111;SDS011;13092;51.996;4.458;2023-08-17T06:16:27;48.17;;;44.13;;
25111;SDS011;13092;51.996;4.458;2023-08-17T06:18:55;48.05;;;43.95;;
25111;SDS011;13092;51.996;4.458;2023-08-17T06:21:23;47.30;;;43.20;;
25111;SDS011;13092;51.996;4.458;2023-08-17T06:23:51;48.45;;;44.08;;
25111;SDS011;13092;51.996;4.458;2023-08-17T06:26:21;47.25;;;43.15;;
25111;SDS011;13092;51.996;4.458;2023-08-17T06:28:49;47.05;;;43.05;;
25111;SDS011;13092;51.996;4.458;2023-08-17T06:31:17;47.00;;;43.00;;
25111;SDS011;13092;51.996;4.458;2023-08-17T06:33:46;46.75;;;42.75;;
25111;SDS011;13092;51.996;4.458;2023-08-17T06:36:14;47.38;;;43.47;;
25111;SDS011;13092;51.996;4.458;2023-08-17T06:38:42;48.40;;;44.08;;
25111;SDS011;13092;51.996;4.458;2023-08-17T06:41:11;48.65;;;44.13;;
25111;SDS011;13092;51.996;4.458;2023-08-17T06:43:40;47.65;;;43.55;;
25111;SDS011;13092;51.996;4.458;2023-08-17T06:46:08;48.88;;;44.78;;
25111;SDS011;13092;51.996;4.458;2023-08-17T06:48:37;50.03;;;45.60;;
25111;SDS011;13092;51.996;4.458;2023-08-17T06:51:05;48.38;;;44.00;;
25111;SDS011;13092;51.996;4.458;2023-08-17T06:53:33;47.20;;;43.00;;
25111;SDS011;13092;51.996;4.458;2023-08-17T06:56:01;49.15;;;44.88;;
25111;SDS011;13092;51.996;4.458;2023-08-17T06:58:29;48.35;;;44.22;;
25111;SDS011;13092;51.996;4.458;2023-08-17T07:00:59;47.30;;;43.30;;
25111;SDS011;13092;51.996;4.458;2023-08-17T07:03:27;48.45;;;44.15;;
25111;SDS011;13092;51.996;4.458;2023-08-17T07:05:55;50.15;;;45.63;;
25111;SDS011;13092;51.996;4.458;2023-08-17T07:08:23;48.97;;;44.55;;
25111;SDS011;13092;51.996;4.458;2023-08-17T07:10:51;49.65;;;45.15;;
25111;SDS011;13092;51.996;4.458;2023-08-17T07:13:20;50.08;;;45.33;;
25111;SDS011;13092;51.996;4.458;2023-08-17T07:15:48;49.53;;;45.05;;
25111;SDS011;13092;51.996;4.458;2023-08-17T07:18:18;50.83;;;46.17;;
25111;SDS011;13092;51.996;4.458;2023-08-17T07:20:46;52.47;;;47.70;;
25111;SDS011;13092;51.996;4.458;2023-08-17T07:23:15;52.90;;;48.20;;
25111;SDS011;13092;51.996;4.458;2023-08-17T07:25:43;52.88;;;48.47;;
25111;SDS011;13092;51.996;4.458;2023-08-17T07:28:14;51.40;;;47.22;;
25111;SDS011;13092;51.996;4.458;2023-08-17T07:30:43;50.55;;;46.40;;
25111;SDS011;13092;51.996;4.458;2023-08-17T07:33:11;51.33;;;47.22;;
25111;SDS011;13092;51.996;4.458;2023-08-17T07:35:40;52.67;;;48.38;;
25111;SDS011;13092;51.996;4.458;2023-08-17T07:38:08;51.20;;;47.00;;
25111;SDS011;13092;51.996;4.458;2023-08-17T07:40:37;54.65;;;50.13;;
25111;SDS011;13092;51.996;4.458;2023-08-17T07:43:05;53.55;;;49.15;;
25111;SDS011;13092;51.996;4.458;2023-08-17T07:45:34;54.83;;;50.33;;
25111;SDS011;13092;51.996;4.458;2023-08-17T07:48:02;54.33;;;49.90;;
25111;SDS011;13092;51.996;4.458;2023-08-17T07:50:31;54.00;;;49.58;;
25111;SDS011;13092;51.996;4.458;2023-08-17T07:53:01;55.58;;;50.92;;
25111;SDS011;13092;51.996;4.458;2023-08-17T07:55:29;54.80;;;49.88;;
25111;SDS011;13092;51.996;4.458;2023-08-17T07:57:57;53.15;;;48.85;;
25111;SDS011;13092;51.996;4.458;2023-08-17T08:00:25;53.15;;;48.70;;
25111;SDS011;13092;51.996;4.458;2023-08-17T08:02:54;53.78;;;49.58;;
25111;SDS011;13092;51.996;4.458;2023-08-17T08:05:22;54.15;;;49.65;;
25111;SDS011;13092;51.996;4.458;2023-08-17T08:07:51;54.00;;;49.50;;
25111;SDS011;13092;51.996;4.458;2023-08-17T08:10:20;54.65;;;49.92;;
25111;SDS011;13092;51.996;4.458;2023-08-17T08:12:48;53.90;;;49.40;;
25111;SDS011;13092;51.996;4.458;2023-08-17T08:15:17;52.33;;;47.95;;
25111;SDS011;13092;51.996;4.458;2023-08-17T08:17:45;53.00;;;48.70;;
25111;SDS011;13092;51.996;4.458;2023-08-17T08:20:13;52.95;;;48.72;;
25111;SDS011;13092;51.996;4.458;2023-08-17T08:22:41;53.55;;;48.92;;
25111;SDS011;13092;51.996;4.458;2023-08-17T08:25:12;52.00;;;47.50;;
25111;SDS011;13092;51.996;4.458;2023-08-17T08:27:42;52.45;;;48.15;;
25111;SDS011;13092;51.996;4.458;2023-08-17T08:30:10;55.63;;;50.47;;
25111;SDS011;13092;51.996;4.458;2023-08-17T08:32:39;49.58;;;45.70;;
25111;SDS011;13092;51.996;4.458;2023-08-17T08:35:09;53.78;;;49.45;;
25111;SDS011;13092;51.996;4.458;2023-08-17T08:37:37;54.88;;;50.35;;
25111;SDS011;13092;51.996;4.458;2023-08-17T08:40:10;53.70;;;49.50;;
25111;SDS011;13092;51.996;4.458;2023-08-17T08:42:39;53.40;;;49.15;;
25111;SDS011;13092;51.996;4.458;2023-08-17T08:45:10;53.65;;;49.35;;
25111;SDS011;13092;51.996;4.458;2023-08-17T08:47:38;52.47;;;48.30;;
25111;SDS011;13092;51.996;4.458;2023-08-17T08:50:09;56.13;;;51.63;;
25111;SDS011;13092;51.996;4.458;2023-08-17T08:52:44;56.80;;;52.38;;
25111;SDS011;13092;51.996;4.458;2023-08-17T08:55:18;54.30;;;50.00;;
25111;SDS011;13092;51.996;4.458;2023-08-17T08:57:52;55.15;;;50.95;;
25111;SDS011;13092;51.996;4.458;2023-08-17T09:00:22;56.75;;;52.08;;
25111;SDS011;13092;51.996;4.458;2023-08-17T09:02:52;56.63;;;52.13;;
25111;SDS011;13092;51.996;4.458;2023-08-17T09:05:21;56.67;;;52.22;;
25111;SDS011;13092;51.996;4.458;2023-08-17T09:07:49;57.03;;;52.60;;
25111;SDS011;13092;51.996;4.458;2023-08-17T09:10:19;57.97;;;53.67;;
25111;SDS011;13092;51.996;4.458;2023-08-17T09:12:47;59.40;;;54.80;;
25111;SDS011;13092;51.996;4.458;2023-08-17T09:15:18;55.45;;;51.22;;
25111;SDS011;13092;51.996;4.458;2023-08-17T09:17:46;55.97;;;51.83;;
25111;SDS011;13092;51.996;4.458;2023-08-17T09:23:03;53.75;;;49.85;;
25111;SDS011;13092;51.996;4.458;2023-08-17T09:25:31;55.30;;;51.10;;
25111;SDS011;13092;51.996;4.458;2023-08-17T09:28:02;55.17;;;51.17;;
25111;SDS011;13092;51.996;4.458;2023-08-17T09:30:56;55.85;;;51.85;;
25111;SDS011;13092;51.996;4.458;2023-08-17T09:33:29;58.03;;;53.88;;
25111;SDS011;13092;51.996;4.458;2023-08-17T09:36:01;55.65;;;51.80;;
25111;SDS011;13092;51.996;4.458;2023-08-17T09:38:36;59.88;;;55.58;;
25111;SDS011;13092;51.996;4.458;2023-08-17T09:41:05;57.30;;;53.35;;
25111;SDS011;13092;51.996;4.458;2023-08-17T09:43:33;58.65;;;54.55;;
25111;SDS011;13092;51.996;4.458;2023-08-17T09:46:08;57.53;;;53.60;;
25111;SDS011;13092;51.996;4.458;2023-08-17T09:48:40;62.42;;;58.03;;
25111;SDS011;13092;51.996;4.458;2023-08-17T09:51:14;59.00;;;54.58;;
25111;SDS011;13092;51.996;4.458;2023-08-17T09:53:43;61.67;;;57.38;;
25111;SDS011;13092;51.996;4.458;2023-08-17T09:56:12;60.17;;;56.08;;
25111;SDS011;13092;51.996;4.458;2023-08-17T09:58:43;61.50;;;57.30;;
25111;SDS011;13092;51.996;4.458;2023-08-17T10:01:13;65.43;;;60.67;;
25111;SDS011;13092;51.996;4.458;2023-08-17T10:03:43;62.20;;;57.88;;
25111;SDS011;13092;51.996;4.458;2023-08-17T10:06:13;64.93;;;60.63;;
25111;SDS011;13092;51.996;4.458;2023-08-17T10:08:52;64.70;;;60.20;;
25111;SDS011;13092;51.996;4.458;2023-08-17T10:11:23;63.53;;;59.15;;
25111;SDS011;13092;51.996;4.458;2023-08-17T10:13:55;66.03;;;61.78;;
25111;SDS011;13092;51.996;4.458;2023-08-17T10:16:32;64.57;;;60.05;;
25111;SDS011;13092;51.996;4.458;2023-08-17T10:19:10;62.63;;;58.33;;
25111;SDS011;13092;51.996;4.458;2023-08-17T10:21:46;60.17;;;56.08;;
25111;SDS011;13092;51.996;4.458;2023-08-17T10:24:22;62.85;;;58.78;;
25111;SDS011;13092;51.996;4.458;2023-08-17T10:26:51;67.88;;;62.97;;
25111;SDS011;13092;51.996;4.458;2023-08-17T10:29:21;61.85;;;57.67;;
25111;SDS011;13092;51.996;4.458;2023-08-17T10:32:13;65.30;;;61.13;;
25111;SDS011;13092;51.996;4.458;2023-08-17T10:34:43;65.75;;;61.15;;
25111;SDS011;13092;51.996;4.458;2023-08-17T10:37:24;64.47;;;60.17;;
25111;SDS011;13092;51.996;4.458;2023-08-17T10:39:55;71.68;;;66.47;;
25111;SDS011;13092;51.996;4.458;2023-08-17T10:42:31;66.55;;;62.15;;
25111;SDS011;13092;51.996;4.458;2023-08-17T10:45:02;61.85;;;57.67;;
25111;SDS011;13092;51.996;4.458;2023-08-17T10:48:27;70.28;;;65.63;;
25111;SDS011;13092;51.996;4.458;2023-08-17T10:51:05;59.97;;;56.08;;
25111;SDS011;13092;51.996;4.458;2023-08-17T10:53:34;61.90;;;57.70;;
25111;SDS011;13092;51.996;4.458;2023-08-17T10:56:10;69.32;;;64.93;;
25111;SDS011;13092;51.996;4.458;2023-08-17T10:58:39;71.57;;;67.10;;
25111;SDS011;13092;51.996;4.458;2023-08-17T11:01:10;67.20;;;62.90;;
25111;SDS011;13092;51.996;4.458;2023-08-17T11:03:42;62.42;;;58.63;;
25111;SDS011;13092;51.996;4.458;2023-08-17T11:06:14;70.65;;;66.38;;
25111;SDS011;13092;51.996;4.458;2023-08-17T11:08:51;72.25;;;67.65;;
25111;SDS011;13092;51.996;4.458;2023-08-17T11:11:23;71.15;;;66.90;;
25111;SDS011;13092;51.996;4.458;2023-08-17T11:13:54;67.10;;;63.25;;
25111;SDS011;13092;51.996;4.458;2023-08-17T11:16:25;68.20;;;64.22;;
25111;SDS011;13092;51.996;4.458;2023-08-17T11:18:55;64.57;;;60.67;;
25111;SDS011;13092;51.996;4.458;2023-08-17T11:21:25;60.80;;;56.90;;
25111;SDS011;13092;51.996;4.458;2023-08-17T11:23:55;66.60;;;62.80;;
25111;SDS011;13092;51.996;4.458;2023-08-17T11:26:25;63.92;;;60.20;;
25111;SDS011;13092;51.996;4.458;2023-08-17T11:29:01;56.25;;;52.95;;
25111;SDS011;13092;51.996;4.458;2023-08-17T11:31:31;65.55;;;61.88;;
25111;SDS011;13092;51.996;4.458;2023-08-17T11:34:01;57.58;;;54.25;;
25111;SDS011;13092;51.996;4.458;2023-08-17T11:36:30;65.53;;;61.67;;
25111;SDS011;13092;51.996;4.458;2023-08-17T11:38:58;61.13;;;57.60;;
25111;SDS011;13092;51.996;4.458;2023-08-17T11:41:27;60.40;;;56.90;;
25111;SDS011;13092;51.996;4.458;2023-08-17T11:43:55;56.13;;;53.00;;
25111;SDS011;13092;51.996;4.458;2023-08-17T11:46:25;61.00;;;57.13;;
25111;SDS011;13092;51.996;4.458;2023-08-17T11:48:58;50.30;;;47.30;;
25111;SDS011;13092;51.996;4.458;2023-08-17T11:51:31;43.10;;;40.50;;
25111;SDS011;13092;51.996;4.458;2023-08-17T11:53:59;46.08;;;43.42;;
25111;SDS011;13092;51.996;4.458;2023-08-17T11:56:30;55.30;;;52.00;;
25111;SDS011;13092;51.996;4.458;2023-08-17T11:58:58;59.85;;;56.50;;
25111;SDS011;13092;51.996;4.458;2023-08-17T12:01:32;40.65;;;38.40;;
25111;SDS011;13092;51.996;4.458;2023-08-17T12:04:03;38.40;;;36.17;;
25111;SDS011;13092;51.996;4.458;2023-08-17T12:06:33;45.88;;;43.22;;
25111;SDS011;13092;51.996;4.458;2023-08-17T12:09:03;34.72;;;32.63;;
25111;SDS011;13092;51.996;4.458;2023-08-17T12:11:32;32.65;;;30.58;;
25111;SDS011;13092;51.996;4.458;2023-08-17T12:14:07;28.73;;;26.92;;
25111;SDS011;13092;51.996;4.458;2023-08-17T12:16:44;33.47;;;31.27;;
25111;SDS011;13092;51.996;4.458;2023-08-17T12:19:13;36.72;;;34.28;;
25111;SDS011;13092;51.996;4.458;2023-08-17T12:21:43;36.58;;;34.28;;
25111;SDS011;13092;51.996;4.458;2023-08-17T12:24:12;35.13;;;32.88;;
25111;SDS011;13092;51.996;4.458;2023-08-17T12:26:41;31.95;;;30.10;;
25111;SDS011;13092;51.996;4.458;2023-08-17T12:29:10;34.53;;;32.28;;
25111;SDS011;13092;51.996;4.458;2023-08-17T12:31:38;36.90;;;34.65;;
25111;SDS011;13092;51.996;4.458;2023-08-17T12:34:09;38.78;;;36.40;;
25111;SDS011;13092;51.996;4.458;2023-08-17T12:36:38;45.35;;;42.75;;
25111;SDS011;13092;51.996;4.458;2023-08-17T12:39:08;50.88;;;47.67;;
25111;SDS011;13092;51.996;4.458;2023-08-17T12:41:36;46.80;;;44.13;;
25111;SDS011;13092;51.996;4.458;2023-08-17T12:44:11;55.85;;;52.72;;
25111;SDS011;13092;51.996;4.458;2023-08-17T12:46:43;49.75;;;46.88;;
25111;SDS011;13092;51.996;4.458;2023-08-17T12:49:11;45.72;;;43.10;;
25111;SDS011;13092;51.996;4.458;2023-08-17T12:51:39;36.17;;;34.03;;
25111;SDS011;13092;51.996;4.458;2023-08-17T12:54:13;42.65;;;39.83;;
25111;SDS011;13092;51.996;4.458;2023-08-17T12:56:44;40.97;;;38.30;;
25111;SDS011;13092;51.996;4.458;2023-08-17T12:59:13;46.72;;;43.85;;
25111;SDS011;13092;51.996;4.458;2023-08-17T13:01:41;46.33;;;43.60;;
25111;SDS011;13092;51.996;4.458;2023-08-17T13:04:09;42.47;;;39.97;;
25111;SDS011;13092;51.996;4.458;2023-08-17T13:06:38;35.50;;;33.33;;
25111;SDS011;13092;51.996;4.458;2023-08-17T13:09:16;39.30;;;37.00;;
25111;SDS011;13092;51.996;4.458;2023-08-17T13:11:45;42.20;;;39.72;;
25111;SDS011;13092;51.996;4.458;2023-08-17T13:14:13;43.40;;;40.70;;
25111;SDS011;13092;51.996;4.458;2023-08-17T13:16:42;38.78;;;36.55;;
25111;SDS011;13092;51.996;4.458;2023-08-17T13:19:10;36.88;;;34.72;;
25111;SDS011;13092;51.996;4.458;2023-08-17T13:21:38;33.13;;;30.90;;
25111;SDS011;13092;51.996;4.458;2023-08-17T13:24:07;36.40;;;34.00;;
25111;SDS011;13092;51.996;4.458;2023-08-17T13:26:38;24.67;;;23.13;;
25111;SDS011;13092;51.996;4.458;2023-08-17T13:29:09;18.83;;;17.40;;
25111;SDS011;13092;51.996;4.458;2023-08-17T13:31:38;18.25;;;16.90;;
25111;SDS011;13092;51.996;4.458;2023-08-17T13:34:08;26.83;;;25.20;;
25111;SDS011;13092;51.996;4.458;2023-08-17T13:36:37;29.13;;;27.17;;
25111;SDS011;13092;51.996;4.458;2023-08-17T13:39:07;24.88;;;23.23;;
25111;SDS011;13092;51.996;4.458;2023-08-17T13:41:35;23.17;;;21.33;;
25111;SDS011;13092;51.996;4.458;2023-08-17T13:44:08;30.45;;;28.52;;
25111;SDS011;13092;51.996;4.458;2023-08-17T13:46:36;25.92;;;24.20;;
25111;SDS011;13092;51.996;4.458;2023-08-17T13:49:04;27.27;;;25.17;;
25111;SDS011;13092;51.996;4.458;2023-08-17T13:51:33;31.48;;;29.23;;
25111;SDS011;13092;51.996;4.458;2023-08-17T13:54:01;27.02;;;25.38;;
25111;SDS011;13092;51.996;4.458;2023-08-17T13:56:30;32.78;;;30.48;;
25111;SDS011;13092;51.996;4.458;2023-08-17T13:58:58;36.30;;;33.90;;
25111;SDS011;13092;51.996;4.458;2023-08-17T14:01:28;37.63;;;35.17;;
25111;SDS011;13092;51.996;4.458;2023-08-17T14:03:57;40.13;;;37.88;;
25111;SDS011;13092;51.996;4.458;2023-08-17T14:06:26;37.78;;;35.63;;
25111;SDS011;13092;51.996;4.458;2023-08-17T14:08:54;37.88;;;35.80;;
25111;SDS011;13092;51.996;4.458;2023-08-17T14:11:24;49.30;;;46.55;;
25111;SDS011;13092;51.996;4.458;2023-08-17T14:13:55;43.50;;;41.03;;
25111;SDS011;13092;51.996;4.458;2023-08-17T14:16:23;53.28;;;50.42;;
25111;SDS011;13092;51.996;4.458;2023-08-17T14:18:53;46.28;;;43.70;;
25111;SDS011;13092;51.996;4.458;2023-08-17T14:21:22;44.05;;;41.42;;
25111;SDS011;13092;51.996;4.458;2023-08-17T14:23:50;52.28;;;49.33;;
25111;SDS011;13092;51.996;4.458;2023-08-17T14:26:18;53.25;;;50.05;;
25111;SDS011;13092;51.996;4.458;2023-08-17T14:28:47;57.72;;;54.03;;
25111;SDS011;13092;51.996;4.458;2023-08-17T14:31:17;58.17;;;54.72;;
25111;SDS011;13092;51.996;4.458;2023-08-17T14:33:46;66.93;;;63.17;;
25111;SDS011;13092;51.996;4.458;2023-08-17T14:36:17;58.22;;;55.08;;
25111;SDS011;13092;51.996;4.458;2023-08-17T14:38:46;59.42;;;56.08;;
25111;SDS011;13092;51.996;4.458;2023-08-17T14:41:14;62.78;;;59.05;;
25111;SDS011;13092;51.996;4.458;2023-08-17T14:43:43;66.10;;;62.25;;
25111;SDS011;13092;51.996;4.458;2023-08-17T14:46:11;60.00;;;56.55;;
25111;SDS011;13092;51.996;4.458;2023-08-17T14:48:40;58.53;;;55.13;;
25111;SDS011;13092;51.996;4.458;2023-08-17T14:51:09;64.68;;;60.97;;
25111;SDS011;13092;51.996;4.458;2023-08-17T14:53:40;60.88;;;57.45;;
25111;SDS011;13092;51.996;4.458;2023-08-17T14:56:09;59.75;;;56.42;;
25111;SDS011;13092;51.996;4.458;2023-08-17T14:58:38;57.05;;;53.97;;
25111;SDS011;13092;51.996;4.458;2023-08-17T15:01:07;72.00;;;68.03;;
25111;SDS011;13092;51.996;4.458;2023-08-17T15:03:36;62.95;;;59.15;;
25111;SDS011;13092;51.996;4.458;2023-08-17T15:06:06;71.47;;;67.43;;
25111;SDS011;13092;51.996;4.458;2023-08-17T15:08:58;63.83;;;60.30;;
25111;SDS011;13092;51.996;4.458;2023-08-17T15:11:29;66.43;;;62.80;;
25111;SDS011;13092;51.996;4.458;2023-08-17T15:13:57;64.15;;;60.42;;
25111;SDS011;13092;51.996;4.458;2023-08-17T15:16:26;63.90;;;60.15;;
25111;SDS011;13092;51.996;4.458;2023-08-17T15:18:55;59.63;;;56.03;;
25111;SDS011;13092;51.996;4.458;2023-08-17T15:21:24;60.97;;;57.38;;
25111;SDS011;13092;51.996;4.458;2023-08-17T15:23:56;55.85;;;52.63;;
25111;SDS011;13092;51.996;4.458;2023-08-17T15:26:27;63.13;;;59.30;;
25111;SDS011;13092;51.996;4.458;2023-08-17T15:28:55;64.97;;;60.25;;
25111;SDS011;13092;51.996;4.458;2023-08-17T15:31:24;67.25;;;62.65;;
25111;SDS011;13092;51.996;4.458;2023-08-17T15:33:52;65.88;;;61.67;;
25111;SDS011;13092;51.996;4.458;2023-08-17T15:36:44;65.78;;;61.78;;
25111;SDS011;13092;51.996;4.458;2023-08-17T15:39:12;65.38;;;61.35;;
25111;SDS011;13092;51.996;4.458;2023-08-17T15:41:42;65.57;;;61.47;;
25111;SDS011;13092;51.996;4.458;2023-08-17T15:44:11;65.97;;;61.88;;
25111;SDS011;13092;51.996;4.458;2023-08-17T19:57:26;57.67;;;52.30;;
25111;SDS011;13092;51.996;4.458;2023-08-17T20:00:12;57.13;;;51.67;;
25111;SDS011;13092;51.996;4.458;2023-08-17T20:07:06;56.10;;;50.83;;
25111;SDS011;13092;51.996;4.458;2023-08-17T20:09:53;55.08;;;49.80;;
25111;SDS011;13092;51.996;4.458;2023-08-17T20:12:50;55.65;;;50.55;;
25111;SDS011;13092;51.996;4.458;2023-08-17T20:15:26;57.15;;;51.95;;
25111;SDS011;13092;51.996;4.458;2023-08-17T20:18:13;55.97;;;50.72;;
25111;SDS011;13092;51.996;4.458;2023-08-17T20:21:41;54.78;;;49.55;;
25111;SDS011;13092;51.996;4.458;2023-08-17T20:27:37;56.75;;;51.25;;
25111;SDS011;13092;51.996;4.458;2023-08-17T20:30:27;56.03;;;50.72;;
25111;SDS011;13092;51.996;4.458;2023-08-17T20:33:00;56.55;;;51.10;;
25111;SDS011;13092;51.996;4.458;2023-08-17T20:35:43;57.30;;;51.80;;
25111;SDS011;13092;51.996;4.458;2023-08-17T20:38:52;55.97;;;50.70;;
25111;SDS011;13092;51.996;4.458;2023-08-17T20:41:37;56.58;;;51.38;;
25111;SDS011;13092;51.996;4.458;2023-08-17T20:44:30;57.97;;;52.60;;
25111;SDS011;13092;51.996;4.458;2023-08-17T20:50:37;54.22;;;49.28;;
25111;SDS011;13092;51.996;4.458;2023-08-17T20:54:33;55.90;;;50.88;;
25111;SDS011;13092;51.996;4.458;2023-08-17T20:56:50;55.38;;;50.40;;
25111;SDS011;13092;51.996;4.458;2023-08-17T20:59:26;55.28;;;50.20;;
25111;SDS011;13092;51.996;4.458;2023-08-17T21:01:55;55.05;;;50.05;;
25111;SDS011;13092;51.996;4.458;2023-08-17T21:04:34;55.15;;;50.05;;
25111;SDS011;13092;51.996;4.458;2023-08-17T21:07:45;55.20;;;50.17;;
25111;SDS011;13092;51.996;4.458;2023-08-17T21:13:46;56.65;;;51.35;;
25111;SDS011;13092;51.996;4.458;2023-08-17T21:16:15;56.40;;;51.20;;
25111;SDS011;13092;51.996;4.458;2023-08-17T21:57:44;55.50;;;50.30;;
25111;SDS011;13092;51.996;4.458;2023-08-17T22:00:15;55.40;;;50.00;;
25111;SDS011;13092;51.996;4.458;2023-08-17T22:02:43;53.65;;;48.53;;
25111;SDS011;13092;51.996;4.458;2023-08-17T22:05:12;53.03;;;47.88;;
25111;SDS011;13092;51.996;4.458;2023-08-17T22:07:40;54.13;;;48.92;;
25111;SDS011;13092;51.996;4.458;2023-08-17T22:10:09;55.38;;;50.05;;
25111;SDS011;13092;51.996;4.458;2023-08-17T22:12:38;56.00;;;50.60;;
25111;SDS011;13092;51.996;4.458;2023-08-17T22:15:09;55.50;;;50.20;;
25111;SDS011;13092;51.996;4.458;2023-08-17T22:17:37;54.88;;;49.67;;
25111;SDS011;13092;51.996;4.458;2023-08-17T22:20:06;55.35;;;50.05;;
25111;SDS011;13092;51.996;4.458;2023-08-17T22:22:36;55.70;;;50.38;;
25111;SDS011;13092;51.996;4.458;2023-08-17T22:25:05;54.92;;;49.78;;
25111;SDS011;13092;51.996;4.458;2023-08-17T22:27:33;53.20;;;48.08;;
25111;SDS011;13092;51.996;4.458;2023-08-17T22:30:02;54.70;;;49.03;;
25111;SDS011;13092;51.996;4.458;2023-08-17T22:32:35;52.95;;;47.85;;
25111;SDS011;13092;51.996;4.458;2023-08-17T22:35:03;54.33;;;49.05;;
25111;SDS011;13092;51.996;4.458;2023-08-17T22:37:36;52.60;;;47.55;;
25111;SDS011;13092;51.996;4.458;2023-08-17T22:40:07;53.03;;;47.83;;
25111;SDS011;13092;51.996;4.458;2023-08-17T22:42:36;53.10;;;48.15;;
25111;SDS011;13092;51.996;4.458;2023-08-17T22:45:06;52.80;;;47.60;;
25111;SDS011;13092;51.996;4.458;2023-08-17T22:47:38;50.40;;;45.60;;
25111;SDS011;13092;51.996;4.458;2023-08-17T22:50:10;51.55;;;46.65;;
25111;SDS011;13092;51.996;4.458;2023-08-17T22:52:38;51.47;;;46.53;;
25111;SDS011;13092;51.996;4.458;2023-08-17T22:55:07;53.35;;;48.45;;
25111;SDS011;13092;51.996;4.458;2023-08-17T22:57:35;54.28;;;48.85;;
25111;SDS011;13092;51.996;4.458;2023-08-17T23:00:04;52.10;;;47.08;;
25111;SDS011;13092;51.996;4.458;2023-08-17T23:02:35;51.00;;;46.20;;
25111;SDS011;13092;51.996;4.458;2023-08-17T23:05:05;51.35;;;46.65;;
25111;SDS011;13092;51.996;4.458;2023-08-17T23:07:36;50.88;;;46.25;;
25111;SDS011;13092;51.996;4.458;2023-08-17T23:10:06;50.63;;;46.03;;
25111;SDS011;13092;51.996;4.458;2023-08-17T23:12:35;51.28;;;46.60;;
25111;SDS011;13092;51.996;4.458;2023-08-17T23:15:05;53.13;;;48.22;;
25111;SDS011;13092;51.996;4.458;2023-08-17T23:17:35;51.30;;;46.60;;
25111;SDS011;13092;51.996;4.458;2023-08-17T23:20:05;51.70;;;47.00;;
25111;SDS011;13092;51.996;4.458;2023-08-17T23:22:34;49.80;;;45.33;;
25111;SDS011;13092;51.996;4.458;2023-08-17T23:25:06;51.30;;;46.60;;
25111;SDS011;13092;51.996;4.458;2023-08-17T23:27:34;51.58;;;46.75;;
25111;SDS011;13092;51.996;4.458;2023-08-17T23:30:06;48.95;;;44.42;;
25111;SDS011;13092;51.996;4.458;2023-08-17T23:32:34;50.03;;;45.50;;
25111;SDS011;13092;51.996;4.458;2023-08-17T23:35:08;50.13;;;45.35;;
25111;SDS011;13092;51.996;4.458;2023-08-17T23:37:39;50.70;;;46.00;;
25111;SDS011;13092;51.996;4.458;2023-08-17T23:40:08;51.80;;;47.08;;
25111;SDS011;13092;51.996;4.458;2023-08-17T23:42:36;50.50;;;45.85;;
25111;SDS011;13092;51.996;4.458;2023-08-17T23:45:05;50.47;;;45.97;;
25111;SDS011;13092;51.996;4.458;2023-08-17T23:47:35;49.95;;;45.53;;
25111;SDS011;13092;51.996;4.458;2023-08-17T23:50:03;49.20;;;44.78;;
25111;SDS011;13092;51.996;4.458;2023-08-17T23:52:34;48.15;;;43.95;;
25111;SDS011;13092;51.996;4.458;2023-08-17T23:55:04;49.28;;;44.92;;
25111;SDS011;13092;51.996;4.458;2023-08-17T23:57:33;49.58;;;45.10;;
